createdAt,value
2023-10-08T00:00:25.714Z,98023.19
2023-10-08T00:05:29.804Z,98020.75
2023-10-08T00:10:37.019Z,98023.44
2023-10-08T00:15:54.073Z,98026.50
2023-10-08T00:21:06.711Z,98003.66
2023-10-08T00:26:11.156Z,98009.41
2023-10-08T00:31:18.823Z,98007.88
2023-10-08T00:36:25.102Z,98012.13
2023-10-08T00:41:34.254Z,98000.59
2023-10-08T00:46:43.700Z,97993.13
2023-10-08T00:52:00.653Z,97993.66
2023-10-08T00:57:07.045Z,98026.50
2023-10-08T01:02:15.965Z,98044.53
2023-10-08T01:07:20.726Z,98053.22
2023-10-08T01:12:28.865Z,98025.47
2023-10-08T01:17:43.356Z,98018.53
2023-10-08T01:22:49.736Z,98010.81
2023-10-08T01:27:57.900Z,98020.25
2023-10-08T01:33:04.241Z,98020.78
2023-10-08T01:38:14.772Z,98018.19
2023-10-08T01:43:19.541Z,98025.56
2023-10-08T01:48:29.246Z,98031.50
2023-10-08T01:53:35.149Z,98035.41
2023-10-08T01:58:39.694Z,98035.31
2023-10-08T02:03:44.243Z,98034.06
2023-10-08T02:08:49.916Z,98027.00
2023-10-08T02:13:54.072Z,98017.03
2023-10-08T02:18:58.361Z,98021.53
2023-10-08T02:24:04.931Z,98045.09
2023-10-08T02:29:13.047Z,98036.19
2023-10-08T02:34:17.456Z,98030.44
2023-10-08T02:39:27.139Z,98025.56
2023-10-08T02:44:31.918Z,98032.44
2023-10-08T02:49:37.768Z,98069.25
2023-10-08T02:54:43.242Z,98058.38
2023-10-08T02:59:47.374Z,98089.06
2023-10-08T03:04:54.461Z,98112.53
2023-10-08T03:10:07.590Z,98089.19
2023-10-08T03:15:16.901Z,98122.41
2023-10-08T03:20:31.109Z,98113.09
2023-10-08T03:25:42.714Z,98131.34
2023-10-08T03:30:52.842Z,98138.03
2023-10-08T03:35:58.064Z,98143.31
2023-10-08T03:41:10.855Z,98138.38
2023-10-08T03:46:17.406Z,98134.47
2023-10-08T03:51:22.673Z,98160.00
2023-10-08T03:56:31.551Z,98165.25
2023-10-08T04:01:36.200Z,98176.16
2023-10-08T04:06:48.668Z,98175.69
2023-10-08T04:11:59.992Z,98150.28
2023-10-08T04:17:04.813Z,98158.09
2023-10-08T04:22:15.998Z,98158.91
2023-10-08T04:27:23.294Z,98156.19
2023-10-08T04:32:27.727Z,98166.59
2023-10-08T04:37:34.466Z,98185.97
2023-10-08T04:42:42.934Z,98204.38
2023-10-08T04:47:50.916Z,98217.91
2023-10-08T04:52:59.759Z,98193.00
2023-10-08T04:58:20.538Z,98201.31
2023-10-08T05:03:29.614Z,98161.94
2023-10-08T05:08:48.654Z,98196.94
2023-10-08T05:14:07.169Z,98199.25
2023-10-08T05:19:26.141Z,98207.53
2023-10-08T05:24:39.575Z,98236.38
2023-10-08T05:30:12.949Z,98243.84
2023-10-08T05:35:49.942Z,98258.97
2023-10-08T05:41:18.137Z,98270.53
2023-10-08T05:46:48.572Z,98278.19
2023-10-08T05:52:12.954Z,98288.91
2023-10-08T05:57:36.875Z,98305.97
2023-10-08T06:03:02.040Z,98317.88
2023-10-08T06:08:14.265Z,98337.22
2023-10-08T06:13:30.716Z,98360.81
2023-10-08T06:18:36.390Z,98376.63
2023-10-08T06:23:43.990Z,98386.25
2023-10-08T06:28:48.852Z,98394.03
2023-10-08T06:33:54.728Z,98428.72
2023-10-08T06:39:00.774Z,98431.16
2023-10-08T06:44:05.214Z,98452.03
2023-10-08T06:49:15.113Z,98458.34
2023-10-08T06:54:21.322Z,98480.38
2023-10-08T06:59:26.817Z,98491.09
2023-10-08T07:04:32.555Z,98499.22
2023-10-08T07:09:37.442Z,98517.00
2023-10-08T07:14:43.124Z,98535.41
2023-10-08T07:19:52.356Z,98555.63
2023-10-08T07:24:56.631Z,98570.56
2023-10-08T07:30:04.050Z,98594.16
2023-10-08T07:35:26.090Z,98607.88
2023-10-08T07:40:32.153Z,98626.56
2023-10-08T07:45:37.103Z,98631.19
2023-10-08T07:50:46.401Z,98656.06
2023-10-08T07:55:50.674Z,98653.53
2023-10-08T08:00:55.265Z,98672.63
2023-10-08T08:06:02.108Z,98681.78
2023-10-08T08:11:08.358Z,98692.56
2023-10-08T08:16:19.648Z,98706.16
2023-10-08T08:21:26.807Z,98700.00
2023-10-08T08:26:31.176Z,98702.72
2023-10-08T08:31:36.790Z,98704.16
2023-10-08T08:36:47.585Z,98711.41
2023-10-08T08:41:54.791Z,98719.56
2023-10-08T08:47:00.428Z,98728.50
2023-10-08T08:52:06.088Z,98735.44
2023-10-08T08:57:14.910Z,98743.47
2023-10-08T09:02:19.822Z,98751.41
2023-10-08T09:07:25.737Z,98741.31
2023-10-08T09:12:29.690Z,98751.84
2023-10-08T09:17:34.583Z,98751.75
2023-10-08T09:22:40.152Z,98760.41
2023-10-08T09:27:47.878Z,98772.78
2023-10-08T09:32:54.479Z,98783.44
2023-10-08T09:38:01.767Z,98787.69
2023-10-08T09:43:09.884Z,98795.38
2023-10-08T09:48:18.681Z,98801.72
2023-10-08T09:53:32.434Z,98807.50
2023-10-08T09:58:36.459Z,98813.38
2023-10-08T10:03:43.658Z,98826.31
2023-10-08T10:08:50.627Z,98826.56
2023-10-08T10:14:01.755Z,98826.91
2023-10-08T10:19:05.934Z,98835.09
2023-10-08T10:24:24.487Z,98842.94
2023-10-08T10:29:28.620Z,98848.16
2023-10-08T10:34:35.911Z,98850.78
2023-10-08T10:39:43.220Z,98856.00
2023-10-08T10:44:50.572Z,98867.97
2023-10-08T10:50:11.545Z,98875.16
2023-10-08T10:55:24.399Z,98877.91
2023-10-08T11:00:46.825Z,98874.00
2023-10-08T11:05:56.119Z,98873.97
2023-10-08T11:11:06.236Z,98877.94
2023-10-08T11:16:14.849Z,98881.56
2023-10-08T11:21:25.137Z,98879.59
2023-10-08T11:26:40.190Z,98862.81
2023-10-08T11:31:44.779Z,98883.22
2023-10-08T11:36:56.990Z,98882.44
2023-10-08T11:42:12.470Z,98881.09
2023-10-08T11:47:22.443Z,98882.75
2023-10-08T11:52:26.412Z,98872.94
2023-10-08T11:57:32.306Z,98880.78
2023-10-08T12:02:36.609Z,98877.03
2023-10-08T12:07:41.318Z,98885.22
2023-10-08T12:12:47.865Z,98885.84
2023-10-08T12:18:09.540Z,98891.06
2023-10-08T12:23:24.224Z,98901.06
2023-10-08T12:28:30.093Z,98894.66
2023-10-08T12:33:35.333Z,98912.31
2023-10-08T12:38:42.319Z,98902.53
2023-10-08T12:43:48.096Z,98904.78
2023-10-08T12:48:54.804Z,98905.09
2023-10-08T12:54:05.194Z,98906.56
2023-10-08T12:59:21.600Z,98919.50
2023-10-08T13:04:29.518Z,98915.91
2023-10-08T13:09:38.356Z,98934.22
2023-10-08T13:14:45.931Z,98933.09
2023-10-08T13:19:49.992Z,98930.78
2023-10-08T13:24:53.913Z,98947.44
2023-10-08T13:29:59.825Z,98941.88
2023-10-08T13:35:05.574Z,98941.69
2023-10-08T13:40:16.618Z,98954.34
2023-10-08T13:45:27.876Z,98963.63
2023-10-08T13:50:32.037Z,98968.69
2023-10-08T13:55:36.615Z,98980.66
2023-10-08T14:00:42.172Z,98973.75
2023-10-08T14:05:51.122Z,98973.44
2023-10-08T14:10:58.019Z,98968.19
2023-10-08T14:16:09.555Z,98971.78
2023-10-08T14:21:16.247Z,98977.13
2023-10-08T14:26:23.129Z,98980.06
2023-10-08T14:31:29.180Z,98986.88
2023-10-08T14:36:50.915Z,98984.03
2023-10-08T14:42:12.832Z,98980.59
2023-10-08T14:47:18.124Z,98984.84
2023-10-08T14:52:22.164Z,98988.78
2023-10-08T14:57:27.741Z,99000.28
2023-10-08T15:02:34.445Z,98995.97
2023-10-08T15:07:38.443Z,98993.00
2023-10-08T15:12:42.507Z,98993.91
2023-10-08T15:17:50.712Z,99006.66
2023-10-08T15:22:55.347Z,98999.28
2023-10-08T15:27:59.228Z,99013.06
2023-10-08T15:33:04.930Z,99016.03
2023-10-08T15:38:09.446Z,99022.34
2023-10-08T15:43:13.771Z,99019.38
2023-10-08T15:48:19.485Z,99029.84
2023-10-08T15:53:23.464Z,99031.03
2023-10-08T15:58:27.513Z,99039.16
2023-10-08T16:03:32.941Z,99046.44
2023-10-08T16:08:37.220Z,99045.97
2023-10-08T16:13:43.721Z,99052.44
2023-10-08T16:18:49.817Z,99057.53
2023-10-08T16:23:54.302Z,99066.59
2023-10-08T16:28:58.653Z,99072.47
2023-10-08T16:34:04.197Z,99079.31
2023-10-08T16:39:12.011Z,99084.25
2023-10-08T16:44:16.819Z,99074.81
2023-10-08T16:49:22.661Z,99087.66
2023-10-08T16:54:26.759Z,99099.88
2023-10-08T16:59:30.939Z,99112.69
2023-10-08T17:04:36.735Z,99115.19
2023-10-08T17:09:40.692Z,99131.28
2023-10-08T17:14:45.243Z,99125.53
2023-10-08T17:19:52.263Z,99135.78
2023-10-08T17:24:57.161Z,99132.75
2023-10-08T17:30:01.342Z,99145.88
2023-10-08T17:35:08.106Z,99141.50
2023-10-08T17:40:13.660Z,99152.44
2023-10-08T17:45:24.240Z,99131.69
2023-10-08T17:50:31.793Z,99150.63
2023-10-08T17:55:37.022Z,99157.09
2023-10-08T18:00:42.341Z,99158.97
2023-10-08T18:05:47.886Z,99155.66
2023-10-08T18:10:53.587Z,99157.28
2023-10-08T18:15:58.268Z,99168.50
2023-10-08T18:21:04.641Z,99162.16
2023-10-08T18:26:10.379Z,99175.56
2023-10-08T18:31:17.501Z,99171.75
2023-10-08T18:36:25.661Z,99169.84
2023-10-08T18:41:30.390Z,99171.47
2023-10-08T18:46:35.644Z,99171.47
2023-10-08T18:51:43.911Z,99183.31
2023-10-08T18:56:48.991Z,99184.53
2023-10-08T19:01:53.493Z,99184.03
2023-10-08T19:06:58.809Z,99188.03
2023-10-08T19:12:02.957Z,99188.38
2023-10-08T19:17:10.657Z,99195.09
2023-10-08T19:22:15.939Z,99206.72
2023-10-08T19:27:20.758Z,99205.63
2023-10-08T19:32:25.132Z,99209.84
2023-10-08T19:37:30.635Z,99207.50
2023-10-08T19:42:39.089Z,99206.94
2023-10-08T19:47:45.955Z,99217.41
2023-10-08T19:52:52.472Z,99214.75
2023-10-08T19:57:56.739Z,99212.88
2023-10-08T20:03:00.791Z,99216.53
2023-10-08T20:08:07.663Z,99205.94
2023-10-08T20:13:12.282Z,99206.03
2023-10-08T20:18:17.293Z,99210.19
2023-10-08T20:23:23.857Z,99222.59
2023-10-08T20:28:28.283Z,99218.34
2023-10-08T20:33:32.395Z,99223.75
2023-10-08T20:38:38.188Z,99226.16
2023-10-08T20:43:42.394Z,99222.84
2023-10-08T20:48:48.957Z,99220.38
2023-10-08T20:53:57.856Z,99214.13
2023-10-08T20:59:02.748Z,99213.09
2023-10-08T21:04:07.664Z,99224.75
2023-10-08T21:09:16.757Z,99230.13
2023-10-08T21:14:21.704Z,99216.56
2023-10-08T21:19:26.820Z,99203.03
2023-10-08T21:24:32.242Z,99209.63
2023-10-08T21:29:36.552Z,99209.31
2023-10-08T21:34:40.763Z,99216.94
2023-10-08T21:39:46.175Z,99224.53
2023-10-08T21:44:50.772Z,99222.19
2023-10-08T21:49:56.153Z,99221.41
2023-10-08T21:55:02.122Z,99223.66
2023-10-08T22:00:29.754Z,99215.72
2023-10-08T22:05:35.502Z,99207.91
2023-10-08T22:10:43.926Z,99194.78
2023-10-08T22:15:48.988Z,99184.41
2023-10-08T22:20:54.189Z,99182.84
2023-10-08T22:25:59.858Z,99190.53
2023-10-08T22:31:10.623Z,99197.66
2023-10-08T22:36:29.371Z,99190.78
2023-10-08T22:41:45.356Z,99188.94
2023-10-08T22:46:58.569Z,99190.41
2023-10-08T22:52:05.170Z,99185.66
2023-10-08T22:57:10.983Z,99178.44
2023-10-08T23:02:15.208Z,99187.13
2023-10-08T23:07:21.202Z,99183.53
2023-10-08T23:12:27.092Z,99182.28
2023-10-08T23:17:31.607Z,99183.34
2023-10-08T23:22:36.176Z,99189.09
2023-10-08T23:27:41.480Z,99181.06
2023-10-08T23:32:45.589Z,99182.94
2023-10-08T23:37:54.734Z,99157.56
2023-10-08T23:43:01.148Z,99165.28
2023-10-08T23:48:19.916Z,99173.09
2023-10-08T23:53:28.996Z,99170.16
2023-10-08T23:58:38.003Z,99164.47
